Time;durP1;ratioP1;P1;durP2;ratioP2;P2;SDS_P1;SDS_P2;PMS_P1;PMS_P2;Temp;Humidity;BMP_temperature;BMP_pressure;BME280_temperature;BME280_humidity;BME280_pressure;Samples;Min_cycle;Max_cycle;Signal;HPM_P1;HPM_P2
2022/04/20 05:29:14;;;;;;;;;;;;;;;;;;;;;
2022/04/20 05:32:02;;;;;;;;;;;;;;;;;;;;;
2022/04/20 05:35:01;;;;;;;;;;;;;;;;;;;;;
2022/04/20 05:43:43;;;;;;;;;;;;;;;;;;;;;
2022/04/20 05:49:35;;;;;;;5.93;2.37;;;10.00;99.90;;;;;;4959049;24;20191;-93
2022/04/20 05:52:37;;;;;;;;;;;;;;;;;;;;;
2022/04/20 05:58:06;;;;;;;;;;;;;;;;;;;;;
2022/04/20 06:00:54;;;;;;;8.37;2.93;;;10.10;99.90;;;;;;4956199;23;20164;-94
2022/04/20 06:03:16;;;;;;;9.13;3.27;;;10.20;99.90;;;;;;4942405;24;20153;-93
2022/04/20 06:06:02;;;;;;;;;;;;;;;;;;;;;
2022/04/20 06:12:30;;;;;;;;;;;;;;;;;;;;;
2022/04/20 06:15:21;;;;;;;9.60;3.00;;;10.30;99.90;;;;;;5031971;23;20149;-95
2022/04/20 06:18:07;;;;;;;9.30;2.40;;;10.40;99.90;;;;;;4990116;23;20211;-93
2022/04/20 06:24:14;;;;;;;12.80;2.80;;;10.50;99.90;;;;;;5078453;23;20146;-94
2022/04/20 06:26:30;;;;;;;8.10;2.90;;;10.70;99.90;;;;;;5102115;23;20165;-94
2022/04/20 06:28:51;;;;;;;8.70;3.27;;;10.60;99.90;;;;;;5079659;23;20153;-94
2022/04/20 06:31:39;;;;;;;4.67;2.40;;;10.80;99.90;;;;;;5041976;23;20166;-94
2022/04/20 06:34:24;;;;;;;7.33;2.83;;;10.80;99.90;;;;;;5035697;23;20250;-95
2022/04/20 06:36:55;;;;;;;7.50;2.90;;;10.80;99.90;;;;;;5073451;23;20152;-93
2022/04/20 06:39:49;;;;;;;;;;;;;;;;;;;;;
2022/04/20 06:42:37;;;;;;;5.37;2.67;;;10.80;99.90;;;;;;5028811;23;20162;-94
2022/04/20 06:45:37;;;;;;;8.17;2.90;;;10.90;99.90;;;;;;5027364;23;20190;-94
2022/04/20 06:48:27;;;;;;;9.40;2.90;;;10.80;99.90;;;;;;5031300;23;20182;-94
2022/04/20 06:50:45;;;;;;;8.97;2.57;;;11.00;99.90;;;;;;5005183;23;20156;-94
2022/04/20 06:58:38;;;;;;;16.40;4.10;;;11.10;99.90;;;;;;5100791;23;20248;-94
2022/04/20 07:00:53;;;;;;;10.80;3.03;;;11.20;99.90;;;;;;5075886;23;20659;-94
2022/04/20 07:03:16;;;;;;;10.47;2.93;;;11.10;99.90;;;;;;5108599;23;20147;-93
2022/04/20 07:05:57;;;;;;;11.83;2.87;;;11.10;99.90;;;;;;5082543;23;20463;-96
2022/04/20 07:08:27;;;;;;;;;;;;;;;;;;;;;
2022/04/20 07:10:53;;;;;;;7.00;2.77;;;11.40;99.90;;;;;;5100425;23;20188;-93
2022/04/20 07:13:08;;;;;;;9.13;2.70;;;11.80;99.90;;;;;;5080512;23;20158;-94
2022/04/20 07:16:08;;;;;;;6.80;2.70;;;12.00;99.90;;;;;;5083456;23;20150;-93
2022/04/20 07:18:46;;;;;;;7.57;2.43;;;12.30;99.90;;;;;;5126610;23;20666;-96
2022/04/20 07:21:34;;;;;;;7.37;2.57;;;12.80;99.90;;;;;;5129339;23;20163;-94
2022/04/20 07:23:54;;;;;;;12.23;2.80;;;13.10;99.90;;;;;;5127890;23;20148;-92
2022/04/20 07:26:27;;;;;;;8.73;3.00;;;13.40;99.90;;;;;;5087250;23;20152;-96
2022/04/20 07:33:03;;;;;;;7.20;3.27;;;13.90;99.90;;;;;;5045270;23;20205;-94
2022/04/20 07:35:38;;;;;;;5.67;3.27;;;14.50;99.90;;;;;;5079550;23;20168;-94
2022/04/20 09:09:28;;;;;;;;;;;;;;;;;;;;;
2022/04/20 09:12:03;;;;;;;9.82;2.90;;;17.40;99.90;;;;;;5089740;23;20157;-93
2022/04/20 09:18:27;;;;;;;;;;;;;;;;;;;;;
2022/04/20 09:21:20;;;;;;;7.05;2.88;;;17.80;99.90;;;;;;5034743;23;20263;-93
2022/04/20 09:24:27;;;;;;;5.00;2.30;;;17.70;99.90;;;;;;5044607;23;20549;-95
2022/04/20 09:26:24;;;;;;;4.25;2.55;;;17.40;99.90;;;;;;5040614;23;20173;-94
2022/04/20 09:42:36;;;;;;;8.07;2.90;;;18.80;99.90;;;;;;5119282;23;20225;-95
2022/04/20 09:53:17;;;;;;;;;;;;;;;;;;;;;
2022/04/20 09:55:43;;;;;;;6.80;2.30;;;19.00;99.90;;;;;;5142160;23;20197;-95
2022/04/20 09:58:04;;;;;;;10.80;2.55;;;18.90;99.90;;;;;;5082452;23;20264;-95
2022/04/20 10:06:55;;;;;;;4.22;1.92;;;18.70;99.90;;;;;;4978757;23;20196;-95
2022/04/20 10:17:30;;;;;;;3.00;1.63;;;17.80;99.90;;;;;;5068427;23;20666;-96
2022/04/20 10:20:07;;;;;;;;;;;;;;;;;;;;;
2022/04/20 10:22:46;;;;;;;4.43;1.98;;;17.20;99.90;;;;;;5092692;23;20195;-95
2022/04/20 10:25:22;;;;;;;4.43;1.70;;;17.40;99.90;;;;;;5068746;23;20171;-95
2022/04/20 10:27:58;;;;;;;5.38;1.70;;;17.20;99.90;;;;;;5067710;23;20517;-95
2022/04/20 10:30:07;;;;;;;4.22;1.75;;;17.40;99.90;;;;;;5020463;23;20158;-93
2022/04/20 10:32:48;;;;;;;7.57;1.98;;;17.20;99.90;;;;;;5103127;23;20575;-93
2022/04/20 10:34:52;;;;;;;3.88;1.80;;;17.00;99.90;;;;;;5120901;23;20279;-95
2022/04/20 10:37:31;;;;;;;2.92;1.92;;;16.80;99.90;;;;;;5126984;23;20612;-95
2022/04/20 10:39:40;;;;;;;14.95;2.63;;;16.90;99.90;;;;;;5127783;23;20147;-92
2022/04/20 10:42:33;;;;;;;;;;;;;;;;;;;;;
2022/04/20 10:44:55;;;;;;;4.20;1.60;;;17.00;99.90;;;;;;5118278;23;20180;-96
2022/04/20 10:47:26;;;;;;;9.07;2.30;;;17.00;99.90;;;;;;5094178;23;20156;-96
2022/04/20 10:49:34;;;;;;;3.75;2.28;;;17.20;99.90;;;;;;5088555;23;20149;-96
2022/04/20 10:51:46;;;;;;;4.63;2.13;;;17.30;99.90;;;;;;5119484;23;20155;-93
2022/04/20 10:53:52;;;;;;;7.28;2.20;;;17.20;99.90;;;;;;5118955;23;20163;-93
2022/04/20 10:56:32;;;;;;;4.82;2.03;;;17.10;99.90;;;;;;5119230;23;20468;-94
2022/04/20 10:59:31;;;;;;;5.72;2.30;;;17.10;99.90;;;;;;5118110;23;20231;-96
2022/04/20 11:02:03;;;;;;;5.53;2.55;;;17.00;99.90;;;;;;5121908;23;20186;-95
2022/04/20 11:04:42;;;;;;;3.03;1.88;;;17.30;99.90;;;;;;5117812;23;20549;-95
2022/04/20 11:09:49;;;;;;;8.15;2.30;;;17.40;99.90;;;;;;5129792;22;20194;-94
2022/04/20 11:21:04;;;;;;;6.82;2.83;;;17.80;99.90;;;;;;5123513;23;20235;-94
2022/04/20 11:23:30;;;;;;;7.53;2.15;;;17.70;99.90;;;;;;5108684;23;20157;-95
2022/04/20 11:25:48;;;;;;;13.30;2.78;;;17.50;99.90;;;;;;5101374;23;20159;-95
2022/04/20 11:27:49;;;;;;;6.10;2.50;;;17.70;99.90;;;;;;5110027;23;20225;-93
2022/04/20 11:29:53;;;;;;;8.05;2.40;;;17.60;99.90;;;;;;5135423;23;20153;-93
2022/04/20 11:32:48;;;;;;;5.75;2.53;;;17.20;99.90;;;;;;5114412;23;20180;-95
2022/04/20 11:35:31;;;;;;;4.45;2.30;;;17.30;99.90;;;;;;5158482;23;20249;-93
2022/04/20 11:37:57;;;;;;;7.90;2.30;;;17.70;99.90;;;;;;5073099;23;20172;-96
2022/04/20 11:40:06;;;;;;;8.07;2.20;;;18.00;99.90;;;;;;5102377;23;20303;-95
2022/04/20 11:42:38;;;;;;;;;;;;;;;;;;;;;
2022/04/20 11:45:27;;;;;;;4.90;2.75;;;18.00;99.90;;;;;;5121496;23;20164;-93
2022/04/20 11:52:13;;;;;;;;;;;;;;;;;;;;;
2022/04/20 11:54:00;;;;;;;5.40;2.38;;;18.10;99.90;;;;;;5106896;23;20240;-95
2022/04/20 11:57:06;;;;;;;15.18;2.63;;;18.00;99.90;;;;;;5123580;23;20159;-96
2022/04/20 11:59:10;;;;;;;11.30;2.40;;;17.90;99.90;;;;;;5119125;23;20453;-94
2022/04/20 12:01:22;;;;;;;3.65;2.13;;;17.90;99.90;;;;;;5096053;23;20156;-95
2022/04/20 12:03:30;;;;;;;4.07;2.30;;;17.80;99.90;;;;;;5094721;23;20153;-95
2022/04/20 12:05:30;;;;;;;3.95;1.88;;;17.80;99.90;;;;;;5095092;23;20152;-95
2022/04/20 12:07:32;;;;;;;2.88;1.65;;;17.70;99.90;;;;;;5118878;23;20168;-94
2022/04/20 12:09:50;;;;;;;3.72;2.08;;;17.90;99.90;;;;;;5119673;23;20598;-93
2022/04/20 12:12:18;;;;;;;5.22;1.77;;;17.90;99.90;;;;;;5121158;23;20153;-96
2022/04/20 12:14:37;;;;;;;9.43;2.55;;;18.00;99.90;;;;;;5094765;23;20184;-92
2022/04/20 12:16:58;;;;;;;6.82;2.30;;;18.20;99.90;;;;;;5095134;23;20149;-93
2022/04/20 12:23:18;;;;;;;2.35;1.70;;;18.10;99.90;;;;;;5117987;23;20159;-93
2022/04/20 12:25:54;;;;;;;6.45;2.22;;;18.50;99.90;;;;;;5101457;23;20155;-94
2022/04/20 12:28:35;;;;;;;5.93;1.88;;;18.80;99.90;;;;;;5071544;23;20578;-95
2022/04/20 12:31:01;;;;;;;5.47;2.40;;;18.70;99.90;;;;;;5118443;23;20153;-93
2022/04/20 12:33:08;;;;;;;4.13;2.13;;;18.50;99.90;;;;;;5021200;23;20256;-94
2022/04/20 12:35:20;;;;;;;7.03;2.50;;;18.30;99.90;;;;;;5086475;23;20196;-94
2022/04/20 12:37:29;;;;;;;4.90;2.15;;;18.50;99.90;;;;;;5095533;23;20173;-95
2022/04/20 12:39:36;;;;;;;7.70;2.30;;;18.40;99.90;;;;;;5094882;23;20603;-92
2022/04/20 12:41:47;;;;;;;4.78;2.25;;;18.20;99.90;;;;;;5094587;23;20155;-93
2022/04/20 12:43:50;;;;;;;7.20;2.30;;;18.20;99.90;;;;;;5094620;23;20217;-91
2022/04/20 12:46:14;;;;;;;4.15;2.00;;;18.10;99.90;;;;;;5118808;23;20156;-92
2022/04/20 12:49:11;;;;;;;5.25;1.90;;;18.00;99.90;;;;;;5094024;23;20197;-94
2022/04/20 12:51:25;;;;;;;6.55;1.90;;;18.10;99.90;;;;;;5085773;23;20164;-91
2022/04/20 12:53:55;;;;;;;8.82;2.67;;;18.20;99.90;;;;;;5094220;23;20620;-93
2022/04/20 13:03:22;;;;;;;;;;;;;;;;;;;;;
2022/04/20 13:05:18;;;;;;;4.85;2.50;;;18.30;99.90;;;;;;5116463;23;20280;-93
2022/04/20 13:07:19;;;;;;;4.05;2.10;;;18.50;99.90;;;;;;5121461;23;20169;-94
2022/04/20 13:09:22;;;;;;;5.47;2.30;;;18.40;99.90;;;;;;5126900;23;20159;-92
2022/04/20 13:14:18;;;;;;;7.20;2.55;;;18.10;99.90;;;;;;5089469;23;20164;-93
2022/04/20 13:16:58;;;;;;;5.13;1.92;;;18.20;99.90;;;;;;5094921;23;20181;-93
2022/04/20 13:19:07;;;;;;;6.75;2.20;;;18.30;99.90;;;;;;5072921;23;20231;-92
2022/04/20 13:21:09;;;;;;;8.88;2.50;;;18.30;99.90;;;;;;5093978;23;20192;-93
2022/04/20 13:23:19;;;;;;;3.88;2.00;;;18.30;99.90;;;;;;5093566;23;20224;-94
2022/04/20 13:27:55;;;;;;;12.38;2.58;;;18.40;99.90;;;;;;5119231;23;20172;-94
2022/04/20 13:30:05;;;;;;;7.45;2.13;;;18.50;99.90;;;;;;5118856;23;20152;-92
2022/04/20 13:32:14;;;;;;;6.15;2.13;;;18.40;99.90;;;;;;5093588;23;20157;-93
2022/04/20 13:34:18;;;;;;;9.90;1.80;;;18.30;99.90;;;;;;5093815;23;20677;-93
2022/04/20 13:36:32;;;;;;;7.07;2.13;;;18.50;99.90;;;;;;5094202;23;20145;-95
2022/04/20 13:38:47;;;;;;;5.70;2.30;;;18.50;99.90;;;;;;5093871;23;20248;-94
2022/04/20 13:41:07;;;;;;;3.75;2.38;;;18.70;99.90;;;;;;5096448;23;20157;-92
2022/04/20 13:43:44;;;;;;;7.13;2.10;;;18.80;99.90;;;;;;5118135;23;20502;-95
2022/04/20 13:45:50;;;;;;;3.58;2.13;;;18.70;99.90;;;;;;5118489;23;20152;-95
2022/04/20 13:48:13;;;;;;;6.68;2.03;;;18.80;99.90;;;;;;5093941;23;20168;-94
2022/04/20 13:50:14;;;;;;;10.00;2.33;;;18.70;99.90;;;;;;5094197;23;20208;-94
2022/04/20 13:52:15;;;;;;;9.38;2.35;;;18.80;99.90;;;;;;5093758;23;20221;-93
2022/04/20 13:54:16;;;;;;;7.78;2.45;;;18.70;99.90;;;;;;5093924;23;20189;-92
2022/04/20 13:56:24;;;;;;;4.95;2.33;;;18.60;99.90;;;;;;5093873;23;20323;-94
2022/04/20 13:58:46;;;;;;;4.38;2.30;;;18.60;99.90;;;;;;5093368;23;20168;-94
2022/04/20 14:01:04;;;;;;;8.10;2.38;;;18.80;99.90;;;;;;5095469;23;20622;-95
2022/04/20 14:03:05;;;;;;;5.00;2.28;;;19.00;99.90;;;;;;5094443;23;20207;-94
2022/04/20 14:05:09;;;;;;;7.13;2.15;;;19.00;99.90;;;;;;5094224;23;20157;-91
2022/04/20 14:07:36;;;;;;;3.42;2.13;;;18.70;99.90;;;;;;5093397;23;20686;-93
2022/04/20 14:09:58;;;;;;;4.85;2.13;;;18.90;99.90;;;;;;5087164;23;20152;-93
2022/04/20 14:12:24;;;;;;;7.18;2.30;;;18.90;99.90;;;;;;5094246;23;20144;-93
2022/04/20 14:14:32;;;;;;;6.63;2.65;;;19.00;99.90;;;;;;5093345;23;20197;-94
2022/04/20 14:16:41;;;;;;;4.55;2.40;;;19.10;99.90;;;;;;5094376;23;20216;-94
2022/04/20 14:18:45;;;;;;;6.55;2.60;;;19.00;99.90;;;;;;5093888;23;20180;-93
2022/04/20 14:20:46;;;;;;;15.98;2.78;;;18.60;99.90;;;;;;5093039;23;20145;-93
2022/04/20 14:22:47;;;;;;;3.00;2.05;;;18.60;99.90;;;;;;5093168;23;20638;-93
2022/04/20 14:24:47;;;;;;;3.55;2.15;;;18.60;99.90;;;;;;5117880;23;20152;-94
2022/04/20 14:33:58;;;;;;;5.90;2.63;;;18.70;99.90;;;;;;5118404;23;20180;-96
2022/04/20 14:35:59;;;;;;;5.80;2.63;;;19.10;99.90;;;;;;5093647;23;20662;-93
2022/04/20 14:38:09;;;;;;;3.38;2.60;;;18.90;99.90;;;;;;5093667;23;20173;-93
2022/04/20 14:40:22;;;;;;;8.30;2.63;;;19.10;99.90;;;;;;5110748;23;20216;-94
2022/04/20 14:42:53;;;;;;;5.22;2.70;;;19.00;99.90;;;;;;5094732;23;20149;-95
2022/04/20 14:44:57;;;;;;;4.47;2.92;;;18.90;99.90;;;;;;5093468;23;20165;-94
2022/04/20 14:47:18;;;;;;;4.93;2.78;;;19.00;99.90;;;;;;5093193;23;20149;-94
2022/04/20 14:49:21;;;;;;;12.23;3.60;;;18.80;99.90;;;;;;5093587;23;20516;-94
2022/04/20 14:51:30;;;;;;;10.40;3.60;;;18.70;99.90;;;;;;5120241;23;20152;-93
2022/04/20 14:53:44;;;;;;;11.98;2.90;;;18.70;99.90;;;;;;5096440;23;20153;-93
2022/04/20 14:55:44;;;;;;;6.80;3.17;;;18.70;99.90;;;;;;5094863;23;20642;-92
2022/04/20 14:58:14;;;;;;;12.48;2.97;;;18.80;99.90;;;;;;5119257;23;20192;-93
2022/04/20 15:00:15;;;;;;;8.20;3.03;;;18.90;99.90;;;;;;5096594;23;20168;-95
2022/04/20 15:02:25;;;;;;;11.50;3.70;;;19.00;99.90;;;;;;5095827;23;20583;-96
2022/04/20 15:05:22;;;;;;;;;;;;;;;;;;;;;
2022/04/20 15:07:35;;;;;;;6.18;2.47;;;19.00;99.90;;;;;;5119467;23;20238;-96
2022/04/20 15:10:06;;;;;;;6.93;2.70;;;19.10;99.90;;;;;;5125378;23;20578;-95
2022/04/20 15:12:19;;;;;;;;;;;;;;;;;;;;;
2022/04/20 15:14:49;;;;;;;5.43;2.95;;;18.80;99.90;;;;;;5119883;23;20184;-95
2022/04/20 15:16:58;;;;;;;6.68;2.95;;;18.90;99.90;;;;;;5076287;23;20181;-94
2022/04/20 15:19:23;;;;;;;4.10;2.35;;;18.90;99.90;;;;;;5119900;23;20144;-94
2022/04/20 15:21:24;;;;;;;5.88;2.75;;;19.00;99.90;;;;;;5095150;23;20153;-93
2022/04/20 15:23:40;;;;;;;5.10;2.60;;;18.90;99.90;;;;;;5119654;23;20171;-95
2022/04/20 15:25:41;;;;;;;5.45;3.05;;;18.90;99.90;;;;;;5094516;23;20195;-91
2022/04/20 15:27:41;;;;;;;5.80;2.95;;;18.90;99.90;;;;;;5119175;23;20187;-94
2022/04/20 15:29:42;;;;;;;4.13;2.60;;;18.80;99.90;;;;;;5094882;23;20152;-94
2022/04/20 15:31:43;;;;;;;4.35;2.65;;;18.80;99.90;;;;;;5119162;23;20152;-93
2022/04/20 15:33:45;;;;;;;12.30;3.38;;;18.70;99.90;;;;;;5094860;23;20203;-93
2022/04/20 15:36:03;;;;;;;10.07;3.40;;;18.70;99.90;;;;;;5094450;23;20199;-94
2022/04/20 15:38:04;;;;;;;6.43;3.10;;;18.80;99.90;;;;;;5119418;23;20179;-94
2022/04/20 15:40:12;;;;;;;4.40;2.75;;;18.90;99.90;;;;;;5098508;23;20153;-94
2022/04/20 15:44:59;;;;;;;4.55;3.30;;;19.00;99.90;;;;;;5141190;23;20168;-92
2022/04/20 15:47:03;;;;;;;6.90;3.08;;;19.10;99.90;;;;;;5098950;23;20156;-94
2022/04/20 15:49:10;;;;;;;6.88;3.00;;;18.90;99.90;;;;;;5094962;23;20192;-94
2022/04/20 15:51:11;;;;;;;5.70;3.08;;;18.90;99.90;;;;;;5095350;23;20559;-93
2022/04/20 15:53:11;;;;;;;9.13;3.20;;;19.00;99.90;;;;;;5094846;23;20153;-94
2022/04/20 16:00:14;;;;;;;7.93;2.72;;;19.00;99.90;;;;;;5120076;23;20152;-92
2022/04/20 16:02:15;;;;;;;10.60;3.10;;;18.90;99.90;;;;;;5119604;23;20246;-94
2022/04/20 16:04:15;;;;;;;6.68;2.80;;;18.90;99.90;;;;;;5095084;23;20148;-95
2022/04/20 16:06:17;;;;;;;6.10;2.70;;;19.10;99.90;;;;;;5094600;23;20149;-91
2022/04/20 16:08:18;;;;;;;3.17;2.35;;;18.90;99.90;;;;;;5094756;23;20169;-94
2022/04/20 16:10:23;;;;;;;6.65;3.10;;;18.70;99.90;;;;;;5094657;23;20232;-93
2022/04/20 16:12:24;;;;;;;5.43;2.83;;;18.60;99.90;;;;;;5094730;23;20588;-91
2022/04/20 16:14:38;;;;;;;8.00;2.92;;;18.60;99.90;;;;;;5118768;23;20247;-92
2022/04/20 16:16:42;;;;;;;5.28;2.67;;;19.00;99.90;;;;;;5094390;23;20212;-93
2022/04/20 16:18:54;;;;;;;8.02;3.25;;;19.20;99.90;;;;;;5094838;23;20504;-96
2022/04/20 16:21:05;;;;;;;8.02;2.92;;;19.30;99.90;;;;;;5119143;23;20510;-94
2022/04/20 16:23:10;;;;;;;6.68;3.05;;;19.00;99.90;;;;;;5094971;23;20156;-94
2022/04/20 16:25:11;;;;;;;4.53;2.75;;;19.00;99.90;;;;;;5094305;23;20149;-93
2022/04/20 16:27:21;;;;;;;5.90;2.88;;;18.80;99.90;;;;;;5119011;23;20179;-91
2022/04/20 16:29:22;;;;;;;7.85;3.25;;;18.80;99.90;;;;;;5118752;23;20148;-92
2022/04/20 16:31:23;;;;;;;4.90;2.95;;;19.10;99.90;;;;;;5119257;23;20153;-92
2022/04/20 16:33:24;;;;;;;9.20;3.08;;;18.90;99.90;;;;;;5094202;23;20152;-92
2022/04/20 16:35:25;;;;;;;8.48;3.35;;;18.90;99.90;;;;;;5118645;23;20542;-91
2022/04/20 16:37:27;;;;;;;11.45;3.33;;;18.90;99.90;;;;;;5094299;23;20200;-90
2022/04/20 16:39:28;;;;;;;8.40;3.63;;;18.80;99.90;;;;;;5094874;23;20164;-91
2022/04/20 16:41:29;;;;;;;6.07;3.40;;;18.70;99.90;;;;;;5094206;23;20592;-92
2022/04/20 16:43:30;;;;;;;4.38;3.00;;;18.70;99.90;;;;;;5093795;23;20152;-92
2022/04/20 16:45:31;;;;;;;5.18;3.13;;;18.70;99.90;;;;;;5094384;23;20201;-92
2022/04/20 16:47:33;;;;;;;5.03;3.20;;;18.70;99.90;;;;;;5118800;23;20176;-92
2022/04/20 16:49:34;;;;;;;14.88;3.28;;;18.70;99.90;;;;;;5094188;23;20215;-92
2022/04/20 16:51:35;;;;;;;5.18;3.15;;;18.70;99.90;;;;;;5069929;23;20208;-94
2022/04/20 16:53:36;;;;;;;3.90;2.60;;;18.60;99.90;;;;;;5094047;23;20642;-92
2022/04/20 16:55:37;;;;;;;8.40;2.67;;;18.50;99.90;;;;;;5093964;23;20193;-92
2022/04/20 16:57:40;;;;;;;5.20;2.88;;;18.30;99.90;;;;;;5093983;23;20499;-91
2022/04/20 16:59:42;;;;;;;4.72;3.03;;;18.40;99.90;;;;;;5094321;23;20153;-92
2022/04/20 17:01:43;;;;;;;5.10;2.90;;;18.50;99.90;;;;;;5093935;23;20155;-92
2022/04/20 17:03:44;;;;;;;5.82;2.60;;;18.40;99.90;;;;;;5118719;23;20148;-91
2022/04/20 17:05:48;;;;;;;7.43;2.83;;;18.40;99.90;;;;;;5118688;23;20691;-92
2022/04/20 17:07:49;;;;;;;7.55;3.28;;;18.40;99.90;;;;;;5093995;23;20198;-92
2022/04/20 17:09:50;;;;;;;5.20;2.58;;;18.60;99.90;;;;;;5118318;23;20149;-94
2022/04/20 17:11:55;;;;;;;5.57;3.05;;;18.60;99.90;;;;;;5093928;23;20153;-92
2022/04/20 17:14:00;;;;;;;9.40;3.28;;;18.60;99.90;;;;;;5094079;23;20580;-91
2022/04/20 17:16:02;;;;;;;6.40;3.33;;;18.60;99.90;;;;;;5118393;23;20164;-92
2022/04/20 17:18:03;;;;;;;8.27;2.95;;;18.60;99.90;;;;;;5117966;23;20173;-91
2022/04/20 17:27:02;;;;;;;8.73;3.42;;;18.40;99.90;;;;;;5118082;23;20144;-90
2022/04/20 17:29:08;;;;;;;9.93;3.17;;;18.40;99.90;;;;;;5093293;23;20157;-92
2022/04/20 17:31:09;;;;;;;4.93;2.83;;;18.20;99.90;;;;;;5093514;23;20149;-92
2022/04/20 17:33:10;;;;;;;5.90;3.38;;;18.30;99.90;;;;;;5093752;23;20156;-91
2022/04/20 17:37:30;;;;;;;10.48;3.35;;;18.50;99.90;;;;;;5118618;23;20711;-91
2022/04/20 17:39:31;;;;;;;6.88;3.40;;;18.30;99.90;;;;;;5093859;23;20149;-90
2022/04/20 17:41:32;;;;;;;7.90;3.10;;;18.10;99.90;;;;;;5094419;23;20660;-92
2022/04/20 17:43:33;;;;;;;13.70;3.42;;;18.30;99.90;;;;;;5093829;23;20160;-90
2022/04/20 17:45:34;;;;;;;6.53;3.20;;;18.30;99.90;;;;;;5093921;23;20149;-91
2022/04/20 17:47:34;;;;;;;6.75;3.38;;;18.30;99.90;;;;;;5093628;23;20247;-92
2022/04/20 17:49:35;;;;;;;7.20;3.22;;;18.10;99.90;;;;;;5093521;23;20259;-91
2022/04/20 17:51:37;;;;;;;5.85;3.05;;;18.00;99.90;;;;;;5093975;23;20145;-91
2022/04/20 17:53:38;;;;;;;8.57;3.55;;;17.90;99.90;;;;;;5093482;23;20215;-91
2022/04/20 17:55:39;;;;;;;5.97;3.15;;;17.80;99.90;;;;;;5118519;23;20188;-92
2022/04/20 17:57:40;;;;;;;9.55;3.28;;;17.70;99.90;;;;;;5093984;23;20635;-91
2022/04/20 17:59:41;;;;;;;9.27;3.13;;;17.80;99.90;;;;;;5093861;23;20160;-91
2022/04/20 18:01:43;;;;;;;7.55;3.10;;;17.80;99.90;;;;;;5093778;23;20145;-92
2022/04/20 18:03:46;;;;;;;9.27;3.55;;;17.70;99.90;;;;;;5093881;23;20157;-91
2022/04/20 18:05:47;;;;;;;5.30;3.22;;;17.60;99.90;;;;;;5118645;23;20144;-91
2022/04/20 18:07:48;;;;;;;9.07;3.72;;;17.50;99.90;;;;;;5093569;23;20184;-92
2022/04/20 18:09:49;;;;;;;5.20;3.10;;;17.50;99.90;;;;;;5094002;23;20212;-90
2022/04/20 18:11:49;;;;;;;4.65;3.50;;;17.40;99.90;;;;;;5095923;23;20239;-92
2022/04/20 18:13:53;;;;;;;6.10;3.58;;;17.30;99.90;;;;;;5104295;23;20177;-91
2022/04/20 18:15:54;;;;;;;6.40;3.53;;;17.30;99.90;;;;;;5110705;23;20180;-91
2022/04/20 18:17:55;;;;;;;6.45;3.08;;;17.20;99.90;;;;;;5140721;23;20207;-92
2022/04/20 18:19:56;;;;;;;4.78;3.05;;;17.20;99.90;;;;;;5096986;23;20160;-92
2022/04/20 18:21:56;;;;;;;5.38;3.45;;;17.20;99.90;;;;;;5095512;23;20149;-90
2022/04/20 18:23:57;;;;;;;5.55;3.28;;;17.10;99.90;;;;;;5093970;23;20607;-91
2022/04/20 18:25:58;;;;;;;7.00;3.33;;;16.90;99.90;;;;;;5093325;23;20501;-91
2022/04/20 18:27:59;;;;;;;7.97;3.92;;;16.70;99.90;;;;;;5094149;23;20180;-91
2022/04/20 18:30:00;;;;;;;6.72;3.38;;;16.60;99.90;;;;;;5093377;23;20185;-92
2022/04/20 18:32:01;;;;;;;9.23;3.60;;;16.50;99.90;;;;;;5093523;23;20220;-91
2022/04/20 18:34:02;;;;;;;7.68;3.75;;;16.60;99.90;;;;;;5093849;23;20583;-92
2022/04/20 18:36:04;;;;;;;12.15;4.07;;;16.60;99.90;;;;;;5093574;23;20189;-92
2022/04/20 18:38:06;;;;;;;9.40;3.67;;;16.40;99.90;;;;;;5093801;23;20173;-91
2022/04/20 18:40:08;;;;;;;9.93;3.58;;;16.40;99.90;;;;;;5118412;23;20156;-90
2022/04/20 18:42:09;;;;;;;6.00;3.63;;;16.30;99.90;;;;;;5093517;23;20207;-92
2022/04/20 18:44:10;;;;;;;7.28;4.00;;;16.20;99.90;;;;;;5093356;23;20156;-93
2022/04/20 18:46:12;;;;;;;7.32;3.60;;;16.10;99.90;;;;;;5093924;23;20156;-91
2022/04/20 18:48:13;;;;;;;7.80;4.10;;;16.10;99.90;;;;;;5093330;23;20177;-91
2022/04/20 18:50:15;;;;;;;7.97;4.25;;;16.00;99.90;;;;;;5093667;23;20153;-92
2022/04/20 18:52:15;;;;;;;6.70;3.88;;;16.00;99.90;;;;;;5093862;23;20149;-91
2022/04/20 18:58:54;;;;;;;7.38;3.50;;;15.90;99.90;;;;;;5118367;23;20173;-91
2022/04/20 19:00:56;;;;;;;6.28;4.03;;;16.10;99.90;;;;;;5094165;23;20157;-91
2022/04/20 19:02:56;;;;;;;9.80;4.00;;;16.10;99.90;;;;;;5094022;23;20149;-90
2022/04/20 19:04:57;;;;;;;6.63;3.95;;;16.20;99.90;;;;;;5118980;23;20231;-91
2022/04/20 19:06:58;;;;;;;7.78;3.70;;;16.20;99.90;;;;;;5093881;23;20153;-94
2022/04/20 19:08:59;;;;;;;7.28;4.10;;;16.20;99.90;;;;;;5093845;23;20149;-92
2022/04/20 19:10:59;;;;;;;8.95;3.65;;;16.20;99.90;;;;;;5118646;23;20160;-91
2022/04/20 19:13:02;;;;;;;7.35;4.05;;;16.30;99.90;;;;;;5094006;23;20189;-90
2022/04/20 19:15:04;;;;;;;6.68;3.75;;;16.50;99.90;;;;;;5094058;23;20217;-91
2022/04/20 19:17:04;;;;;;;6.78;3.53;;;16.50;99.90;;;;;;5094114;23;20241;-91
2022/04/20 19:19:05;;;;;;;6.80;3.47;;;16.50;99.90;;;;;;5094348;23;20164;-92
2022/04/20 19:21:06;;;;;;;8.45;4.22;;;16.50;99.90;;;;;;5094769;23;20149;-90
2022/04/20 19:23:07;;;;;;;10.43;3.97;;;16.40;99.90;;;;;;5120430;23;20152;-91
2022/04/20 19:25:09;;;;;;;9.43;3.90;;;16.40;99.90;;;;;;5094352;23;20153;-91
2022/04/20 19:27:11;;;;;;;8.68;4.03;;;16.40;99.90;;;;;;5095064;23;20201;-91
2022/04/20 19:29:12;;;;;;;8.90;3.80;;;16.40;99.90;;;;;;5095930;23;20540;-91
2022/04/20 19:31:13;;;;;;;10.05;3.60;;;16.50;99.90;;;;;;5118235;23;20159;-92
2022/04/20 19:33:14;;;;;;;11.48;3.85;;;16.40;99.90;;;;;;5094305;23;20149;-90
2022/04/20 19:35:15;;;;;;;7.32;3.65;;;16.10;99.90;;;;;;5094163;23;20193;-90
2022/04/20 19:37:15;;;;;;;9.63;3.40;;;15.80;99.90;;;;;;5096877;23;20230;-92
2022/04/20 19:39:23;;;;;;;9.02;3.67;;;15.60;99.90;;;;;;5095234;23;20157;-92
2022/04/20 19:41:24;;;;;;;5.50;3.58;;;15.60;99.90;;;;;;5144906;23;20171;-91
2022/04/20 19:43:25;;;;;;;9.10;3.58;;;15.80;99.90;;;;;;5096070;23;20153;-91
2022/04/20 19:45:30;;;;;;;4.55;3.15;;;15.90;99.90;;;;;;5119943;23;20598;-91
2022/04/20 19:47:30;;;;;;;8.23;3.47;;;15.80;99.90;;;;;;5094511;23;20208;-91
2022/04/20 19:49:33;;;;;;;7.72;4.28;;;15.90;99.90;;;;;;5094610;23;20145;-90
2022/04/20 19:51:36;;;;;;;6.60;3.60;;;16.10;99.90;;;;;;5094569;23;20217;-90
2022/04/20 19:53:37;;;;;;;8.02;3.95;;;16.20;99.90;;;;;;5119028;23;20562;-90
2022/04/20 19:55:38;;;;;;;14.20;3.75;;;16.20;99.90;;;;;;5094281;23;20246;-92
2022/04/20 19:57:39;;;;;;;10.77;4.00;;;16.00;99.90;;;;;;5094407;23;20169;-91
2022/04/20 19:59:39;;;;;;;7.43;3.22;;;15.90;99.90;;;;;;5094333;23;20164;-90
2022/04/20 20:01:41;;;;;;;10.07;3.90;;;15.80;99.90;;;;;;5118807;23;20239;-90
2022/04/20 20:03:42;;;;;;;7.97;3.53;;;15.70;99.90;;;;;;5094253;23;20165;-90
2022/04/20 20:05:43;;;;;;;8.48;3.85;;;15.60;99.90;;;;;;5094295;23;20145;-91
2022/04/20 20:07:44;;;;;;;9.10;4.35;;;15.50;99.90;;;;;;5094089;23;20224;-91
2022/04/20 20:09:45;;;;;;;10.07;3.90;;;15.40;99.90;;;;;;5093889;23;20647;-91
2022/04/20 20:11:46;;;;;;;7.68;3.85;;;15.20;99.90;;;;;;5119220;23;20171;-91
2022/04/20 20:13:47;;;;;;;7.32;3.45;;;15.10;99.90;;;;;;5094460;23;20188;-90
2022/04/20 20:15:48;;;;;;;10.23;3.95;;;14.90;99.90;;;;;;5094535;23;20255;-90
2022/04/20 20:17:50;;;;;;;8.20;3.92;;;14.80;99.90;;;;;;5119093;23;20619;-91
2022/04/20 20:19:53;;;;;;;8.07;4.15;;;14.70;99.90;;;;;;5094653;23;20149;-91
2022/04/20 20:21:54;;;;;;;7.55;3.60;;;14.70;99.90;;;;;;5094016;23;20156;-91
2022/04/20 20:30:54;;;;;;;7.78;3.83;;;14.20;99.90;;;;;;5118546;23;20148;-91
2022/04/20 20:32:55;;;;;;;8.55;4.32;;;14.00;99.90;;;;;;5118407;23;20160;-90
2022/04/20 20:34:55;;;;;;;9.77;4.00;;;13.90;99.90;;;;;;5093804;23;20184;-92
2022/04/20 20:36:57;;;;;;;11.00;4.50;;;13.80;99.90;;;;;;5094283;23;20710;-91
2022/04/20 20:38:58;;;;;;;9.40;4.40;;;13.80;99.90;;;;;;5093864;23;20164;-90
2022/04/20 20:40:59;;;;;;;6.93;3.50;;;13.70;99.90;;;;;;5118595;23;20163;-91
2022/04/20 20:42:59;;;;;;;7.67;4.30;;;13.70;99.90;;;;;;5094125;23;20150;-90
2022/04/20 20:45:00;;;;;;;7.83;4.50;;;13.60;99.90;;;;;;5094285;23;20160;-90
2022/04/20 20:47:02;;;;;;;7.80;3.90;;;13.70;99.90;;;;;;5093722;23;20159;-91
2022/04/20 20:51:23;;;;;;;7.83;4.03;;;13.70;99.90;;;;;;5118702;23;20149;-91
2022/04/20 20:53:24;;;;;;;7.77;3.57;;;13.60;99.90;;;;;;5118683;23;20566;-91
2022/04/20 20:55:29;;;;;;;6.63;4.10;;;13.70;99.90;;;;;;5093875;23;20185;-90
2022/04/20 20:57:30;;;;;;;7.93;4.60;;;13.60;99.90;;;;;;5094334;23;20177;-90
2022/04/20 20:59:31;;;;;;;6.87;4.07;;;13.70;99.90;;;;;;5093936;23;20201;-91
2022/04/20 21:01:32;;;;;;;12.20;4.17;;;13.80;99.90;;;;;;5119010;23;20160;-91
2022/04/20 21:03:33;;;;;;;8.37;4.00;;;13.80;99.90;;;;;;5093647;23;20145;-91
2022/04/20 21:05:34;;;;;;;9.37;4.10;;;13.80;99.90;;;;;;5094098;23;20164;-92
2022/04/20 21:07:35;;;;;;;12.03;3.90;;;13.80;99.90;;;;;;5093931;23;20169;-90
2022/04/20 21:09:37;;;;;;;9.47;4.27;;;13.80;99.90;;;;;;5094130;23;20153;-90